Tonic Sea — D5AZ8 — position and weather

sailwx.info

Track history (hours):
 
Tides and Currents Weather Stations Pressure Air Temp Water Temp Dewpoint Dewpoint Depression Visibility Wind Speed Wind Dir Waves Ship Positions

Tonic Sea

Last reported at 2015-May-27 22:32 UTC. Time now 2015-May-27 23:35 UTC.
Position N 51°20' E 004°19'.

Length 229 m; draft 14.3 m.

Type: Cargo ship. MMSI: 636015479.

Date/timePositionNaut miles runAvg speedWind from/ knotsBaromVisibWave heightAir tempDewpointWater temp
2015-May-27 22:32N 51°20' E 004°19'0 0.0
2015-May-27 21:32N 51°20' E 004°19'0 0.0
2015-May-27 20:32N 51°20' E 004°19'0 0.0
2015-May-27 19:32N 51°20' E 004°19'0 0.0
2015-May-27 18:32N 51°20' E 004°19'0 0.0
2015-May-27 17:32N 51°20' E 004°19'0 0.0
2015-May-27 16:32N 51°20' E 004°19'0 0.0
2015-May-27 15:32N 51°20' E 004°19'0 0.0
2015-May-27 14:29N 51°20' E 004°19'0 0.0
2015-May-27 13:32N 51°20' E 004°19'0 0.0
2015-May-27 12:32N 51°20' E 004°19'0 0.0
2015-May-27 11:29N 51°20' E 004°19'0 0.0
2015-May-27 10:32N 51°20' E 004°19'0 0.0
2015-May-27 09:32N 51°20' E 004°19'0 0.0
2015-May-27 08:32N 51°20' E 004°19'0 0.0
2015-May-27 07:32N 51°20' E 004°19'0 0.0
2015-May-27 06:32N 51°20' E 004°19'0 0.0
2015-May-27 05:32N 51°20' E 004°19'0 0.0
2015-May-27 04:32N 51°20' E 004°19'0 0.0
2015-May-27 03:32N 51°20' E 004°19'0 0.0
2015-May-27 02:32N 51°20' E 004°19'0 0.0
2015-May-27 01:32N 51°20' E 004°19'0 0.0
2015-May-27 00:32N 51°20' E 004°19'0 0.0
2015-May-26 23:32N 51°20' E 004°19'0 0.0
2015-May-26 22:32N 51°20' E 004°19'1 0.5
2015-May-26 21:33N 51°19' E 004°19'2 1.5
2015-May-26 20:33N 51°21' E 004°17'0 0.3
2015-May-26 19:33N 51°21' E 004°17'7 6.7
2015-May-26 18:33N 51°22' E 004°06'7 6.6
2015-May-26 17:33N 51°22' E 003°56'9 9.1
2015-May-26 16:33N 51°25' E 003°42'9 8.7
2015-May-26 15:33N 51°25' E 003°28'9 8.7
2015-May-26 14:33N 51°24' E 003°14'9 9.3
2015-May-26 13:33N 51°25' E 002°59'1010.2
2015-May-26 12:33N 51°23' E 002°43'5 4.6
2015-May-26 11:33N 51°26' E 002°37'0 0.2
2015-May-26 10:32N 51°26' E 002°37'0 0.0
2015-May-26 09:31N 51°26' E 002°37'0 0.0
2015-May-26 08:31N 51°26' E 002°37'0 0.0
2015-May-26 07:31N 51°26' E 002°37'0 0.0
2015-May-26 06:32N 51°26' E 002°37'0 0.1
2015-May-26 05:33N 51°26' E 002°37'6 6.1
2015-May-26 04:33N 51°31' E 002°41'82 9.7
2015-May-25 20:08N 52°44' E 003°40'5 8.9
2015-May-25 19:33N 52°48' E 003°46'9 9.4
2015-May-25 18:33N 52°55' E 003°56'1010.1
2015-May-25 17:33N 53°02' E 004°09'1110.7
2015-May-25 16:30N 53°10' E 004°23'1010.8
2015-May-25 15:33N 53°19' E 004°30'1110.7
2015-May-25 14:33N 53°29' E 004°35'3010.0
2015-May-25 11:32N 53°58' E 004°50'10 9.8
2015-May-25 10:34N 54°07' E 004°55'264 9.8
2015-May-24 07:33N 57°42' E 009°30'9 9.2
2015-May-24 06:33N 57°46' E 009°45'9 8.7
2015-May-24 05:33N 57°49' E 010°01'10 9.5
2015-May-24 04:33N 57°48' E 010°19'10 9.6
2015-May-24 03:33N 57°49' E 010°37'9 9.4
2015-May-24 02:33N 57°44' E 010°53'1010.2
2015-May-24 01:33N 57°37' E 011°07'9 9.5
2015-May-24 00:33N 57°31' E 011°20'9 8.5
2015-May-23 23:34N 57°24' E 011°28'9 9.3
2015-May-23 22:33N 57°15' E 011°34'9 9.0
2015-May-23 21:33N 57°07' E 011°40'9 8.9
2015-May-23 20:33N 56°58' E 011°46'9 9.1
2015-May-23 19:33N 56°50' E 011°51'133 8.7
2015-May-23 04:13N 54°41' E 010°46'6 9.8
2015-May-23 03:33N 54°38' E 010°55'10 9.8
2015-May-23 02:33N 54°36' E 011°12'1010.0
2015-May-23 01:33N 54°31' E 011°27'1010.0
2015-May-23 00:33N 54°27' E 011°43'9 9.3
2015-May-22 23:33N 54°26' E 011°59'9 8.8
2015-May-22 22:33N 54°29' E 012°13'14 9.3
2015-May-22 21:03N 54°40' E 012°27'5 9.8
2015-May-22 20:34N 54°43' E 012°34'6010.0
2015-May-22 14:34N 55°08' E 014°09'10 9.8
2015-May-22 13:33N 55°15' E 014°20'1010.0
2015-May-22 12:33N 55°23' E 014°32'9 9.6
2015-May-22 11:33N 55°29' E 014°45'1010.0
2015-May-22 10:33N 55°33' E 015°01'24 9.8
2015-May-22 08:08N 55°41' E 015°41'326 9.4
2015-May-20 21:20N 59°33' E 022°48'910.3
2015-May-20 20:25N 59°35' E 023°06'910.1
2015-May-20 19:31N 59°38' E 023°23'1010.3
2015-May-20 18:33N 59°41' E 023°42'1410.2
2015-May-20 17:13N 59°44' E 024°08'710.2
2015-May-20 16:31N 59°46' E 024°22'1510.4
2015-May-20 15:06N 59°50' E 024°50'1610.2
2015-May-20 13:33N 59°52' E 025°21'1210.2
2015-May-20 12:24N 59°55' E 025°44'1010.1
2015-May-20 11:28N 59°57' E 026°03'910.0
2015-May-20 10:33N 59°59' E 026°20'10 9.6
2015-May-20 09:34N 60°01' E 026°39'10 9.9
2015-May-20 08:34N 59°60' E 026°58'10 9.4
2015-May-20 07:33N 60°03' E 027°16'  
Track history (hours):
 
Tides and Currents Weather Stations Pressure Air Temp Water Temp Dewpoint Dewpoint Depression Visibility Wind Speed Wind Dir Waves Ship Positions

Tonic Sea

Last reported at 2015-May-27 22:32 UTC. Time now 2015-May-27 23:35 UTC.
Position N 51°20' E 004°19'.

Length 229 m; draft 14.3 m.

Type: Cargo ship. MMSI: 636015479.

Date/timePositionNaut miles runAvg speedWind from/ knotsBaromVisibWave heightAir tempDewpointWater temp
2015-May-27 22:32N 51°20' E 004°19'0 0.0
2015-May-27 21:32N 51°20' E 004°19'0 0.0
2015-May-27 20:32N 51°20' E 004°19'0 0.0
2015-May-27 19:32N 51°20' E 004°19'0 0.0
2015-May-27 18:32N 51°20' E 004°19'0 0.0
2015-May-27 17:32N 51°20' E 004°19'0 0.0
2015-May-27 16:32N 51°20' E 004°19'0 0.0
2015-May-27 15:32N 51°20' E 004°19'0 0.0
2015-May-27 14:29N 51°20' E 004°19'0 0.0
2015-May-27 13:32N 51°20' E 004°19'0 0.0
2015-May-27 12:32N 51°20' E 004°19'0 0.0
2015-May-27 11:29N 51°20' E 004°19'0 0.0
2015-May-27 10:32N 51°20' E 004°19'0 0.0
2015-May-27 09:32N 51°20' E 004°19'0 0.0
2015-May-27 08:32N 51°20' E 004°19'0 0.0
2015-May-27 07:32N 51°20' E 004°19'0 0.0
2015-May-27 06:32N 51°20' E 004°19'0 0.0
2015-May-27 05:32N 51°20' E 004°19'0 0.0
2015-May-27 04:32N 51°20' E 004°19'0 0.0
2015-May-27 03:32N 51°20' E 004°19'0 0.0
2015-May-27 02:32N 51°20' E 004°19'0 0.0
2015-May-27 01:32N 51°20' E 004°19'0 0.0
2015-May-27 00:32N 51°20' E 004°19'0 0.0
2015-May-26 23:32N 51°20' E 004°19'0 0.0
2015-May-26 22:32N 51°20' E 004°19'1 0.5
2015-May-26 21:33N 51°19' E 004°19'2 1.5
2015-May-26 20:33N 51°21' E 004°17'0 0.3
2015-May-26 19:33N 51°21' E 004°17'7 6.7
2015-May-26 18:33N 51°22' E 004°06'7 6.6
2015-May-26 17:33N 51°22' E 003°56'9 9.1
2015-May-26 16:33N 51°25' E 003°42'9 8.7
2015-May-26 15:33N 51°25' E 003°28'9 8.7
2015-May-26 14:33N 51°24' E 003°14'9 9.3
2015-May-26 13:33N 51°25' E 002°59'1010.2
2015-May-26 12:33N 51°23' E 002°43'5 4.6
2015-May-26 11:33N 51°26' E 002°37'0 0.2
2015-May-26 10:32N 51°26' E 002°37'0 0.0
2015-May-26 09:31N 51°26' E 002°37'0 0.0
2015-May-26 08:31N 51°26' E 002°37'0 0.0
2015-May-26 07:31N 51°26' E 002°37'0 0.0
2015-May-26 06:32N 51°26' E 002°37'0 0.1
2015-May-26 05:33N 51°26' E 002°37'6 6.1
2015-May-26 04:33N 51°31' E 002°41'82 9.7
2015-May-25 20:08N 52°44' E 003°40'5 8.9
2015-May-25 19:33N 52°48' E 003°46'9 9.4
2015-May-25 18:33N 52°55' E 003°56'1010.1
2015-May-25 17:33N 53°02' E 004°09'1110.7
2015-May-25 16:30N 53°10' E 004°23'1010.8
2015-May-25 15:33N 53°19' E 004°30'1110.7
2015-May-25 14:33N 53°29' E 004°35'3010.0
2015-May-25 11:32N 53°58' E 004°50'10 9.8
2015-May-25 10:34N 54°07' E 004°55'264 9.8
2015-May-24 07:33N 57°42' E 009°30'9 9.2
2015-May-24 06:33N 57°46' E 009°45'9 8.7
2015-May-24 05:33N 57°49' E 010°01'10 9.5
2015-May-24 04:33N 57°48' E 010°19'10 9.6
2015-May-24 03:33N 57°49' E 010°37'9 9.4
2015-May-24 02:33N 57°44' E 010°53'1010.2
2015-May-24 01:33N 57°37' E 011°07'9 9.5
2015-May-24 00:33N 57°31' E 011°20'9 8.5
2015-May-23 23:34N 57°24' E 011°28'9 9.3
2015-May-23 22:33N 57°15' E 011°34'9 9.0
2015-May-23 21:33N 57°07' E 011°40'9 8.9
2015-May-23 20:33N 56°58' E 011°46'9 9.1
2015-May-23 19:33N 56°50' E 011°51'133 8.7
2015-May-23 04:13N 54°41' E 010°46'6 9.8
2015-May-23 03:33N 54°38' E 010°55'10 9.8
2015-May-23 02:33N 54°36' E 011°12'1010.0
2015-May-23 01:33N 54°31' E 011°27'1010.0
2015-May-23 00:33N 54°27' E 011°43'9 9.3
2015-May-22 23:33N 54°26' E 011°59'9 8.8
2015-May-22 22:33N 54°29' E 012°13'14 9.3
2015-May-22 21:03N 54°40' E 012°27'5 9.8
2015-May-22 20:34N 54°43' E 012°34'6010.0
2015-May-22 14:34N 55°08' E 014°09'10 9.8
2015-May-22 13:33N 55°15' E 014°20'1010.0
2015-May-22 12:33N 55°23' E 014°32'9 9.6
2015-May-22 11:33N 55°29' E 014°45'1010.0
2015-May-22 10:33N 55°33' E 015°01'24 9.8
2015-May-22 08:08N 55°41' E 015°41'326 9.4
2015-May-20 21:20N 59°33' E 022°48'910.3
2015-May-20 20:25N 59°35' E 023°06'910.1
2015-May-20 19:31N 59°38' E 023°23'1010.3
2015-May-20 18:33N 59°41' E 023°42'1410.2
2015-May-20 17:13N 59°44' E 024°08'710.2
2015-May-20 16:31N 59°46' E 024°22'1510.4
2015-May-20 15:06N 59°50' E 024°50'1610.2
2015-May-20 13:33N 59°52' E 025°21'1210.2
2015-May-20 12:24N 59°55' E 025°44'1010.1
2015-May-20 11:28N 59°57' E 026°03'910.0
2015-May-20 10:33N 59°59' E 026°20'10 9.6
2015-May-20 09:34N 60°01' E 026°39'10 9.9
2015-May-20 08:34N 59°60' E 026°58'10 9.4
2015-May-20 07:33N 60°03' E 027°16'  

Dump ship's entire track history